Station: Casterton  

  Atmospheric Gas Attenuation - ITU Rec 676-11   ----------------- dB/100km -----------------
Date Time Temp RH % AH g/m3 Dew Point Wind Direction Speed kph Gust kph Barometer mB Rainfall Since 9am 24GHz 47GHz 76GHz 122GHz 134GHz 241GHz
08/05 12:40 13.9 90 10.79 12.3 15 19 1026.6 0.6 24.3 30.1 49.6 130.3 129.7 447.7
08/05 12:30 13.4 93 10.81 12.3 17 20 1026.6 0.6 24.3 30.3 50.0 131.4 130.8 451.7
08/05 12:20 13.3 94 10.86 12.4 15 19 1026.8 0.6 24.4 30.4 50.3 132.2 131.7 454.8
08/05 12:10 13.2 90 10.33 11.6 19 22 1026.9 0.6 23.3 29.5 48.0 126.2 124.3 428.8
08/05 12:00 14 90 10.86 12.4 19 26 1026.7 0.4 24.4 30.2 49.8 131.0 130.5 450.7
08/05 11:50 13.7 93 11.01 12.6 17 22 1026.9 0.4 24.7 30.6 50.7 133.3 133.2 460.1
08/05 11:40 12.8 91 10.19 11.4 20 28 1027.1 0.4 23.0 29.4 47.7 125.2 122.9 424.1
08/05 11:30 13.2 89 10.22 11.4 20 28 1026.8 0.4 23.1 29.3 47.5 124.9 122.7 423.3
08/05 11:20 13.7 88 10.42 11.7 15 17 1026.9 0.4 23.5 29.5 48.1 126.4 124.7 430.5
08/05 11:10 13.5 89 10.41 11.7 22 33 1026.9 0.4 23.5 29.6 48.2 126.6 124.9 431.1
08/05 11:00 13.1 91 10.38 11.7 17 26 1026.7 0.2 23.4 29.6 48.3 126.9 125.1 431.8
08/05 10:50 12.8 91 10.19 11.4 24 28 1026.7 0.2 23.0 29.4 47.6 125.2 122.9 423.9
08/05 10:40 12.8 94 10.53 11.9 19 22 1026.6 0.2 23.8 30.0 49.1 129.1 127.8 441.0
08/05 10:30 12.6 92 10.18 11.3 20 30 1026.5 0.2 23.0 29.4 47.7 125.3 123.1 424.5
08/05 10:20 12.5 93 10.23 11.4 22 32 1026.5 0.2 23.1 29.6 48.0 126.1 123.9 427.5
08/05 10:10 12.2 95 10.25 11.4 19 22 1026.5 0.2 23.2 29.7 48.3 126.8 124.7 430.2
08/05 10:00 12 95 10.13 11.2 19 28 1026.4 0.2 22.9 29.6 47.9 125.7 123.3 425.2
08/05 09:50 12.2 95 10.25 11.4 19 22 1026.5 0.2 23.2 29.7 48.3 126.8 124.7 430.2
08/05 09:40 12.1 96 10.3 11.5 20 22 1026.6 0.2 23.3 29.8 48.5 127.6 125.6 433.3
08/05 09:30 11.8 96 10.11 11.2 20 30 1026.6 0.2 22.9 29.6 47.9 125.8 123.4 425.4
08/05 09:20 11.8 96 10.11 11.2 20 30 1026.7 0.2 22.9 29.6 47.9 125.9 123.4 425.4
08/05 09:10 11.7 96 10.04 11.1 19 26 1026.7 0.2 22.8 29.5 47.7 125.2 122.5 422.4
08/05 09:00 11.6 96 9.98 11 19 28 1026.5 0 22.6 29.4 47.4 124.6 121.8 419.9
08/05 08:50 11.7 95 9.94 10.9 17 22 1026.5 2.6 22.6 29.3 47.2 124.0 121.1 417.3
08/05 08:40 11.6 94 9.77 10.7 26 32 1026.4 2.6 22.2 29.1 46.5 122.2 118.8 409.3
08/05 08:30 11.5 95 9.81 10.7 20 32 1026.2 2.6 22.3 29.2 46.7 122.8 119.5 411.8
08/05 08:20 11.4 94 9.65 10.5 20 24 1026.2 2.6 21.9 28.9 46.1 121.1 117.3 404.3
08/05 08:10 11.4 94 9.65 10.5 22 28 1026.1 2.6 21.9 28.9 46.1 121.0 117.3 404.2
08/05 08:00 11.3 94 9.59 10.4 20 32 1025.8 2.6 21.8 28.8 45.9 120.5 116.6 401.7
08/05 07:50 11.3 94 9.59 10.4 24 30 1025.8 2.6 21.8 28.8 45.9 120.5 116.6 401.7
08/05 07:40 11.3 94 9.59 10.4 20 24 1025.5 2.6 21.8 28.8 45.9 120.4 116.6 401.6
08/05 07:30 11.3 93 9.49 10.2 20 28 1025.3 2.6 21.6 28.6 45.4 119.3 115.1 396.5
08/05 07:20 11.3 93 9.49 10.2 20 22 1025.2 2.6 21.6 28.6 45.4 119.2 115.1 396.5
08/05 07:10 11.3 92 9.39 10 17 20 1025.2 2.6 21.4 28.4 45.0 118.1 113.7 391.5
08/05 07:00 11.3 92 9.39 10 19 26 1025.1 2.6 21.4 28.4 45.0 118.1 113.7 391.5
08/05 06:50 11.3 92 9.39 10 15 19 1025 2.6 21.4 28.4 45.0 118.1 113.7 391.5
08/05 06:40 11.3 92 9.39 10 20 24 1024.8 2.6 21.4 28.4 45.0 118.0 113.7 391.4
08/05 06:30 11.3 92 9.39 10 19 28 1024.8 2.6 21.4 28.4 45.0 118.0 113.7 391.4
08/05 06:20 11.5 91 9.4 10.1 22 28 1024.8 2.6 21.4 28.4 44.9 117.9 113.5 390.9
08/05 06:10 11.4 92 9.44 10.1 22 24 1024.8 2.6 21.5 28.5 45.1 118.5 114.2 393.4
08/05 06:00 11.3 92 9.39 10 22 32 1024.7 2.6 21.4 28.4 45.0 118.0 113.6 391.4
08/05 05:50 11.4 93 9.55 10.3 20 26 1024.7 2.6 21.7 28.7 45.6 119.7 115.8 398.8
08/05 05:40 11.4 93 9.55 10.3 20 28 1024.6 2.6 21.7 28.7 45.6 119.7 115.8 398.8
08/05 05:30 11.4 93 9.55 10.3 24 35 1024.6 2.6 21.7 28.7 45.6 119.7 115.8 398.8
08/05 05:20 11.4 94 9.65 10.5 22 30 1024.7 2.6 22.0 28.8 46.0 120.9 117.2 403.8
08/05 05:10 11.5 95 9.81 10.7 24 30 1024.6 2.6 22.3 29.1 46.7 122.6 119.3 411.2
08/05 05:00 11.6 95 9.88 10.8 20 30 1024.5 2.6 22.4 29.2 46.9 123.2 120.2 414.2
08/05 04:50 11.7 95 9.94 10.9 24 28 1024.4 2.6 22.6 29.2 47.1 123.8 120.9 416.6
08/05 04:40 11.6 96 9.98 11 24 32 1024.3 2.4 22.7 29.3 47.3 124.4 121.6 419.2
08/05 04:30 11.6 96 9.98 11 20 28 1024.2 2.4 22.7 29.3 47.3 124.4 121.6 419.1
08/05 04:20 11.6 96 9.98 11 19 22 1024.2 2.2 22.7 29.3 47.3 124.4 121.6 419.1
08/05 04:10 11.6 96 9.98 11 20 24 1024.2 2.2 22.7 29.3 47.3 124.4 121.6 419.1
08/05 04:00 11.7 95 9.94 10.9 22 30 1024.2 1.8 22.6 29.2 47.1 123.7 120.8 416.6
08/05 03:50 11.7 95 9.94 10.9 22 26 1024 1.6 22.6 29.2 47.1 123.7 120.8 416.5
08/05 03:40 11.8 95 10 11 24 30 1024 1.6 22.7 29.3 47.3 124.2 121.5 419.0
08/05 03:30 11.7 95 9.94 10.9 20 41 1023.9 1.6 22.6 29.2 47.1 123.7 120.8 416.5
08/05 03:20 11.8 95 10 11 20 26 1024.1 1.6 22.7 29.3 47.3 124.3 121.5 419.0
08/05 03:10 11.7 95 9.94 10.9 22 30 1024.2 1.6 22.6 29.2 47.1 123.7 120.8 416.6
08/05 03:00 11.7 95 9.94 10.9 20 33 1024.4 1.6 22.6 29.2 47.1 123.8 120.9 416.6
08/05 02:50 11.7 95 9.94 10.9 22 28 1024.4 1.6 22.6 29.2 47.1 123.8 120.9 416.6
08/05 02:40 11.6 96 9.98 11 22 32 1024.2 1.6 22.7 29.3 47.3 124.4 121.6 419.1
08/05 02:30 11.7 96 10.04 11.1 24 33 1024.4 1.6 22.8 29.4 47.5 124.9 122.3 421.7
08/05 02:20 11.6 96 9.98 11 17 19 1024.4 1.4 22.6 29.4 47.3 124.4 121.6 419.2
08/05 02:10 11.7 96 10.04 11.1 24 28 1024.4 1.4 22.8 29.4 47.5 124.9 122.3 421.7
08/05 02:00 11.6 96 9.98 11 20 30 1024.4 1.4 22.6 29.4 47.3 124.4 121.6 419.2
08/05 01:50 11.6 97 10.08 11.1 22 26 1024.6 1.4 22.9 29.5 47.8 125.6 123.1 424.3
08/05 01:40 11.6 97 10.08 11.1 20 26 1024.7 1.4 22.9 29.5 47.8 125.6 123.1 424.3
08/05 01:30 11.5 97 10.02 11 20 30 1024.7 1.4 22.7 29.5 47.6 125.0 122.4 421.8
08/05 01:20 11.5 97 10.02 11 19 24 1024.7 1.4 22.7 29.5 47.6 125.0 122.4 421.8
08/05 01:10 11.4 97 9.96 10.9 19 20 1024.7 1.4 22.6 29.4 47.4 124.5 121.7 419.4
08/05 01:00 11.4 97 9.96 10.9 20 26 1024.8 1.2 22.6 29.4 47.4 124.5 121.7 419.4
08/05 00:50 11.3 97 9.9 10.8 20 26 1024.9 1.2 22.5 29.3 47.2 124.0 121.0 416.9
08/05 00:40 11.3 97 9.9 10.8 19 20 1024.9 1.2 22.5 29.3 47.2 124.0 121.0 416.9
08/05 00:30 11.2 97 9.83 10.7 19 26 1024.9 1 22.3 29.2 46.9 123.3 120.1 414.0
08/05 00:20 11.1 97 9.77 10.6 15 17 1025 1 22.2 29.2 46.7 122.8 119.4 411.5
08/05 00:10 11.1 97 9.77 10.6 19 20 1025.1 0.8 22.2 29.2 46.8 122.8 119.4 411.5
08/05 00:00 11.1 97 9.77 10.6 19 24 1025.2 0.8 22.2 29.2 46.8 122.8 119.4 411.6
07/05 23:50 11.1 97 9.77 10.6 17 20 1025.6 0.6 22.2 29.2 46.8 122.9 119.5 411.7
07/05 23:40 11 97 9.71 10.5 17 20 1025.5 0.4 22.1 29.1 46.6 122.3 118.8 409.2
07/05 23:30 10.9 97 9.65 10.4 17 24 1025.4 0.4 22.0 29.0 46.4 121.8 118.0 406.6
07/05 23:20 10.9 97 9.65 10.4 20 24 1025.5 0.4 22.0 29.0 46.4 121.8 118.0 406.7
07/05 23:10 10.8 96 9.49 10.2 19 20 1025.3 0.4 21.6 28.8 45.7 120.0 115.9 399.1
07/05 23:00 10.8 96 9.49 10.2 19 30 1025.4 0.4 21.6 28.8 45.7 120.0 115.9 399.1
07/05 22:50 10.7 96 9.43 10.1 19 24 1025.5 0.4 21.5 28.7 45.5 119.5 115.2 396.7
07/05 22:40 10.7 96 9.43 10.1 17 24 1025.6 0.4 21.5 28.7 45.5 119.5 115.2 396.7
07/05 22:30 10.7 96 9.43 10.1 19 26 1025.6 0.4 21.5 28.7 45.5 119.5 115.2 396.7
07/05 22:20 10.6 96 9.37 10 19 22 1025.6 0.4 21.4 28.7 45.3 119.0 114.5 394.2
07/05 22:10 10.6 96 9.37 10 22 30 1025.7 0.2 21.4 28.7 45.3 119.0 114.5 394.2
07/05 22:00 10.6 95 9.27 9.8 20 30 1025.7 0.2 21.2 28.5 44.9 117.8 113.1 389.2
07/05 21:50 10.5 95 9.22 9.7 19 26 1025.7 0.2 21.1 28.4 44.7 117.4 112.5 387.2
07/05 21:40 10.5 94 9.12 9.6 20 22 1025.7 0.2 20.9 28.3 44.3 116.2 111.1 382.3
07/05 21:30 10.5 93 9.02 9.4 20 32 1025.6 0.2 20.6 28.1 43.9 115.1 109.7 377.3
07/05 21:20 10.6 91 8.88 9.2 19 24 1025.7 0.2 20.3 27.8 43.2 113.3 107.5 369.9
07/05 21:10 10.5 91 8.83 9.1 22 28 1025.6 0.2 20.2 27.8 43.1 112.9 107.0 367.9
07/05 21:00 10.3 92 8.81 9.1 17 28 1025.6 0.2 20.2 27.8 43.1 113.0 107.0 367.9
07/05 20:50 10.2 93 8.85 9.1 15 17 1025.8 0.2 20.3 27.9 43.3 113.6 107.7 370.4
07/05 20:40 10.1 93 8.8 9 11 13 1025.9 0.2 20.2 27.8 43.2 113.2 107.1 368.4
07/05 20:30 10.2 92 8.76 9 19 28 1025.8 0.2 20.1 27.7 42.9 112.6 106.4 365.9
07/05 20:20 10.5 89 8.63 8.8 28 33 1025.8 0.2 19.8 27.4 42.2 110.7 104.2 358.2
07/05 20:10 10.7 86 8.45 8.5 20 26 1025.7 0.2 19.4 27.0 41.3 108.3 101.4 348.5

Last Refresh: 08-May-2026 12:10:12

Bureau of Meteorology